Time;durP1;ratioP1;P1;durP2;ratioP2;P2;SDS_P1;SDS_P2;PMS_P1;PMS_P2;Temp;Humidity;BMP_temperature;BMP_pressure;BME280_temperature;BME280_humidity;BME280_pressure;Samples;Min_cycle;Max_cycle;Signal;HPM_P1;HPM_P2
2022/09/15 00:00:23;;;;;;;17.27;12.30;;;;;;;;;;5049784;28;20031;-96
2022/09/15 00:02:49;;;;;;;22.95;13.60;;;;;;;;;;5046325;28;20073;-93
2022/09/15 00:05:16;;;;;;;29.88;13.93;;;;;;;;;;5041927;28;20017;-94
2022/09/15 00:07:42;;;;;;;22.33;13.90;;;;;;;;;;5074179;28;20222;-94
2022/09/15 00:10:09;;;;;;;25.17;14.07;;;;;;;;;;5046743;28;20089;-92
2022/09/15 00:12:35;;;;;;;26.50;11.85;;;;;;;;;;5060361;28;20005;-93
2022/09/15 00:15:01;;;;;;;19.05;10.48;;;;;;;;;;5063348;28;20439;-93
2022/09/15 00:17:27;;;;;;;15.70;10.50;;;;;;;;;;5054796;28;20033;-95
2022/09/15 00:19:53;;;;;;;16.25;10.20;;;;;;;;;;5060980;28;20071;-95
2022/09/15 00:22:19;;;;;;;18.75;9.68;;;;;;;;;;5048617;28;20040;-94
2022/09/15 00:24:48;;;;;;;37.03;26.77;;;;;;;;;;5056306;28;20017;-96
2022/09/15 00:27:14;;;;;;;25.92;17.05;;;;;;;;;;5047415;28;20069;-95
2022/09/15 00:29:41;;;;;;;21.48;12.40;;;;;;;;;;5050285;28;20072;-93
2022/09/15 00:32:07;;;;;;;25.15;10.65;;;;;;;;;;5055015;28;20029;-93
2022/09/15 00:34:33;;;;;;;13.60;9.95;;;;;;;;;;5070682;28;20431;-95
2022/09/15 00:36:59;;;;;;;17.38;11.23;;;;;;;;;;5050290;28;20118;-95
2022/09/15 00:39:25;;;;;;;21.10;11.32;;;;;;;;;;5047125;28;20022;-93
2022/09/15 00:41:51;;;;;;;20.15;12.10;;;;;;;;;;5066556;28;20029;-96
2022/09/15 00:44:23;;;;;;;15.20;10.18;;;;;;;;;;5066793;28;20045;-94
2022/09/15 00:46:50;;;;;;;22.88;10.35;;;;;;;;;;5047892;28;20105;-94
2022/09/15 00:49:19;;;;;;;21.92;10.65;;;;;;;;;;5041171;28;20028;-94
2022/09/15 00:51:54;;;;;;;20.20;10.45;;;;;;;;;;5030868;28;20017;-94
2022/09/15 00:54:28;;;;;;;16.70;8.63;;;;;;;;;;5048726;28;20187;-94
2022/09/15 00:56:56;;;;;;;14.52;9.15;;;;;;;;;;5030562;28;20049;-95
2022/09/15 00:59:24;;;;;;;14.65;9.40;;;;;;;;;;5059712;28;20014;-93
2022/09/15 01:01:54;;;;;;;18.13;9.77;;;;;;;;;;5026816;28;20037;-94
2022/09/15 01:04:20;;;;;;;16.77;10.13;;;;;;;;;;5055389;28;20048;-95
2022/09/15 01:06:48;;;;;;;15.95;8.50;;;;;;;;;;5051563;28;20018;-94
2022/09/15 01:09:17;;;;;;;14.60;8.90;;;;;;;;;;5048480;28;20014;-95
2022/09/15 01:11:44;;;;;;;23.48;17.48;;;;;;;;;;5058946;28;20022;-96
2022/09/15 01:14:11;;;;;;;28.85;22.33;;;;;;;;;;5049521;28;20005;-96
2022/09/15 01:16:37;;;;;;;21.10;14.48;;;;;;;;;;5061068;28;20073;-95
2022/09/15 01:19:21;;;;;;;22.90;13.38;;;;;;;;;;5056350;28;20041;-96
2022/09/15 01:21:51;;;;;;;18.90;10.48;;;;;;;;;;5064452;28;20029;-95
2022/09/15 01:24:36;;;;;;;13.20;9.23;;;;;;;;;;5036695;28;20029;-95
2022/09/15 01:27:37;;;;;;;14.38;9.65;;;;;;;;;;5041429;28;20032;-95
2022/09/15 01:30:05;;;;;;;16.65;10.57;;;;;;;;;;5019551;28;20113;-94
2022/09/15 01:35:21;;;;;;;23.83;12.45;;;;;;;;;;5042338;28;20097;-92
2022/09/15 01:38:14;;;;;;;25.23;13.93;;;;;;;;;;5072150;28;20033;-94
2022/09/15 01:40:49;;;;;;;23.02;13.95;;;;;;;;;;5008884;28;20078;-93
2022/09/15 01:43:16;;;;;;;28.27;13.40;;;;;;;;;;5048813;28;20037;-94
2022/09/15 01:45:43;;;;;;;19.40;13.35;;;;;;;;;;5046030;28;20474;-93
2022/09/15 01:48:10;;;;;;;18.58;11.40;;;;;;;;;;5046622;28;20481;-93
2022/09/15 01:50:42;;;;;;;21.48;11.73;;;;;;;;;;5041942;28;20022;-96
2022/09/15 01:53:10;;;;;;;25.30;10.43;;;;;;;;;;5029976;28;20049;-95
2022/09/15 01:55:40;;;;;;;24.60;10.85;;;;;;;;;;5045205;28;20026;-94
2022/09/15 01:58:07;;;;;;;18.00;9.25;;;;;;;;;;5028244;28;20021;-95
2022/09/15 02:00:34;;;;;;;23.17;10.27;;;;;;;;;;5038321;28;20026;-95
2022/09/15 02:03:04;;;;;;;17.83;9.35;;;;;;;;;;5048963;28;20077;-95
2022/09/15 02:05:34;;;;;;;17.27;10.18;;;;;;;;;;5032730;28;20018;-94
2022/09/15 02:08:04;;;;;;;18.70;9.35;;;;;;;;;;5034751;28;20108;-94
2022/09/15 02:10:42;;;;;;;18.25;9.23;;;;;;;;;;5060158;28;20002;-93
2022/09/15 02:13:34;;;;;;;14.98;9.40;;;;;;;;;;5050946;28;20075;-94
2022/09/15 02:16:01;;;;;;;15.35;7.95;;;;;;;;;;5023722;28;20085;-92
2022/09/15 02:18:42;;;;;;;18.40;9.93;;;;;;;;;;5049122;28;20124;-93
2022/09/15 02:21:17;;;;;;;12.40;8.32;;;;;;;;;;5021586;28;20032;-94
2022/09/15 02:23:46;;;;;;;13.30;8.07;;;;;;;;;;5049143;28;20041;-95
2022/09/15 02:26:15;;;;;;;11.73;8.05;;;;;;;;;;5041720;28;20028;-96
2022/09/15 02:28:42;;;;;;;14.27;8.98;;;;;;;;;;5032159;28;20057;-92
2022/09/15 02:31:12;;;;;;;20.85;9.13;;;;;;;;;;5061564;28;20032;-94
2022/09/15 02:33:41;;;;;;;13.88;7.90;;;;;;;;;;5052699;28;20033;-94
2022/09/15 02:36:09;;;;;;;12.23;7.40;;;;;;;;;;5061231;28;20022;-95
2022/09/15 02:38:40;;;;;;;15.05;8.70;;;;;;;;;;5041974;28;20033;-95
2022/09/15 02:41:06;;;;;;;16.15;7.72;;;;;;;;;;5063525;28;20050;-95
2022/09/15 02:43:33;;;;;;;10.45;7.25;;;;;;;;;;5070954;28;20083;-95
2022/09/15 02:45:59;;;;;;;11.82;7.90;;;;;;;;;;5054403;28;20029;-96
2022/09/15 02:48:25;;;;;;;13.73;7.68;;;;;;;;;;5052825;28;20044;-95
2022/09/15 02:50:51;;;;;;;18.33;7.93;;;;;;;;;;5043197;28;20025;-94
2022/09/15 02:53:17;;;;;;;14.52;7.95;;;;;;;;;;5064456;28;20064;-96
2022/09/15 02:55:43;;;;;;;12.23;7.05;;;;;;;;;;5055293;28;20051;-94
2022/09/15 02:58:09;;;;;;;16.67;7.53;;;;;;;;;;5048831;28;20006;-93
2022/09/15 03:00:37;;;;;;;16.80;7.93;;;;;;;;;;5058603;28;20388;-94
2022/09/15 03:03:03;;;;;;;14.10;7.38;;;;;;;;;;5064751;28;20045;-95
2022/09/15 03:05:29;;;;;;;9.45;6.80;;;;;;;;;;5060388;28;20033;-95
2022/09/15 03:07:56;;;;;;;11.75;7.15;;;;;;;;;;5050366;28;20408;-96
2022/09/15 03:10:23;;;;;;;13.95;8.27;;;;;;;;;;5052632;28;20395;-95
2022/09/15 03:12:51;;;;;;;23.75;8.35;;;;;;;;;;5052075;28;20032;-96
2022/09/15 03:15:18;;;;;;;17.95;8.32;;;;;;;;;;5056085;28;20026;-96
2022/09/15 03:17:45;;;;;;;14.82;8.50;;;;;;;;;;5052359;28;20048;-95
2022/09/15 03:20:13;;;;;;;14.55;8.65;;;;;;;;;;5049900;28;20060;-96
2022/09/15 03:22:39;;;;;;;14.38;7.75;;;;;;;;;;5023405;28;20045;-96
2022/09/15 03:25:07;;;;;;;16.17;9.40;;;;;;;;;;5055140;28;20047;-96
2022/09/15 03:27:33;;;;;;;16.10;9.13;;;;;;;;;;5042825;28;20030;-96
2022/09/15 03:30:00;;;;;;;16.20;9.38;;;;;;;;;;5051700;28;20381;-95
2022/09/15 03:32:26;;;;;;;17.48;8.15;;;;;;;;;;5040302;28;20392;-95
2022/09/15 03:34:52;;;;;;;17.30;8.48;;;;;;;;;;5035605;28;20022;-96
2022/09/15 03:37:18;;;;;;;13.73;8.15;;;;;;;;;;5041606;28;20013;-96
2022/09/15 03:39:45;;;;;;;15.88;8.55;;;;;;;;;;5065597;28;20094;-96
2022/09/15 03:42:11;;;;;;;17.90;9.23;;;;;;;;;;5049007;28;20024;-94
2022/09/15 03:44:37;;;;;;;12.70;7.45;;;;;;;;;;5045696;28;20426;-94
2022/09/15 03:47:03;;;;;;;16.02;9.18;;;;;;;;;;5052284;28;20041;-94
2022/09/15 03:49:29;;;;;;;15.30;8.30;;;;;;;;;;5070323;28;20040;-94
2022/09/15 03:51:57;;;;;;;10.70;8.02;;;;;;;;;;5030236;28;20357;-95
2022/09/15 03:54:23;;;;;;;18.67;7.88;;;;;;;;;;5034841;28;20049;-94
2022/09/15 03:56:50;;;;;;;14.05;8.30;;;;;;;;;;5054799;28;20024;-95
2022/09/15 03:59:17;;;;;;;17.88;9.43;;;;;;;;;;5037680;28;20022;-95
2022/09/15 04:01:44;;;;;;;12.50;8.85;;;;;;;;;;5052151;28;20527;-96
2022/09/15 04:04:10;;;;;;;19.77;9.48;;;;;;;;;;5049340;28;20038;-96
2022/09/15 04:06:36;;;;;;;18.23;9.38;;;;;;;;;;5072949;28;20040;-95
2022/09/15 04:09:03;;;;;;;17.05;9.95;;;;;;;;;;5042542;28;20029;-96
2022/09/15 04:11:29;;;;;;;19.52;9.77;;;;;;;;;;5040525;28;21115;-96
2022/09/15 04:13:56;;;;;;;13.18;9.10;;;;;;;;;;5043005;28;20060;-95
2022/09/15 04:16:23;;;;;;;13.40;10.13;;;;;;;;;;5050673;28;20112;-96
2022/09/15 04:18:50;;;;;;;21.95;9.98;;;;;;;;;;5051733;28;20021;-96
2022/09/15 04:21:17;;;;;;;17.55;9.43;;;;;;;;;;5036041;28;20112;-96
2022/09/15 04:23:44;;;;;;;21.65;11.02;;;;;;;;;;5051763;28;20034;-90
2022/09/15 04:26:16;;;;;;;20.83;9.50;;;;;;;;;;5048961;28;20043;-88
2022/09/15 04:28:42;;;;;;;15.95;8.93;;;;;;;;;;5027227;28;20033;-88
2022/09/15 04:31:09;;;;;;;23.33;9.93;;;;;;;;;;5036626;28;20036;-89
2022/09/15 04:33:36;;;;;;;17.58;10.00;;;;;;;;;;5046047;28;20070;-89
2022/09/15 04:36:03;;;;;;;21.55;9.02;;;;;;;;;;5043105;28;20067;-90
2022/09/15 04:38:30;;;;;;;22.52;9.13;;;;;;;;;;5032642;28;20029;-89
2022/09/15 04:40:56;;;;;;;14.43;7.63;;;;;;;;;;5019896;28;20484;-89
2022/09/15 04:43:22;;;;;;;15.93;6.07;;;;;;;;;;5043234;28;20704;-89
2022/09/15 04:45:48;;;;;;;10.18;6.28;;;;;;;;;;5033388;28;20028;-89
2022/09/15 04:48:14;;;;;;;12.88;6.60;;;;;;;;;;5036787;28;20061;-90
2022/09/15 04:50:40;;;;;;;12.05;6.50;;;;;;;;;;5027777;28;20029;-89
2022/09/15 04:53:07;;;;;;;19.00;7.22;;;;;;;;;;5053573;28;20080;-89
2022/09/15 04:55:33;;;;;;;14.63;5.82;;;;;;;;;;5051201;28;20057;-90
2022/09/15 04:58:01;;;;;;;11.95;7.10;;;;;;;;;;5030560;28;20021;-89
2022/09/15 05:00:27;;;;;;;13.18;6.93;;;;;;;;;;5043210;28;20060;-88
2022/09/15 05:02:53;;;;;;;17.58;7.72;;;;;;;;;;5027216;28;20045;-87
2022/09/15 05:05:20;;;;;;;19.27;8.65;;;;;;;;;;5030808;28;20018;-89
2022/09/15 05:07:49;;;;;;;16.27;8.85;;;;;;;;;;5040125;28;20443;-89
2022/09/15 05:10:15;;;;;;;22.60;8.68;;;;;;;;;;5040733;28;20030;-90
2022/09/15 05:12:41;;;;;;;11.98;8.55;;;;;;;;;;5038357;28;20017;-92
2022/09/15 05:15:07;;;;;;;17.05;8.60;;;;;;;;;;5018137;28;20032;-90
2022/09/15 05:17:34;;;;;;;17.83;9.10;;;;;;;;;;5038592;28;20097;-92
2022/09/15 05:20:00;;;;;;;10.55;6.80;;;;;;;;;;5047081;28;20021;-91
2022/09/15 05:22:27;;;;;;;18.58;9.27;;;;;;;;;;5039568;28;20449;-89
2022/09/15 05:24:53;;;;;;;23.95;11.10;;;;;;;;;;5029073;28;20449;-92
2022/09/15 05:27:19;;;;;;;20.45;10.80;;;;;;;;;;5046834;28;20045;-90
2022/09/15 05:29:45;;;;;;;18.23;8.77;;;;;;;;;;5055137;28;20018;-92
2022/09/15 05:32:11;;;;;;;17.45;7.85;;;;;;;;;;5026026;28;20025;-90
2022/09/15 05:34:37;;;;;;;20.27;10.07;;;;;;;;;;5034552;28;20044;-91
2022/09/15 05:37:04;;;;;;;11.90;7.75;;;;;;;;;;5047102;28;20025;-91
2022/09/15 05:39:30;;;;;;;14.20;6.53;;;;;;;;;;5036584;28;20032;-93
2022/09/15 05:41:56;;;;;;;17.50;8.13;;;;;;;;;;5028444;28;20024;-92
2022/09/15 05:44:22;;;;;;;12.07;6.45;;;;;;;;;;5030329;28;20037;-92
2022/09/15 05:46:48;;;;;;;14.80;7.78;;;;;;;;;;5031595;28;20434;-90
2022/09/15 05:49:14;;;;;;;15.02;7.28;;;;;;;;;;5033323;28;20112;-90
2022/09/15 05:51:40;;;;;;;22.02;7.05;;;;;;;;;;5043828;28;20041;-92
2022/09/15 05:54:07;;;;;;;11.88;7.15;;;;;;;;;;5031442;28;20099;-91
2022/09/15 05:56:33;;;;;;;16.30;7.03;;;;;;;;;;5034101;28;20036;-92
2022/09/15 05:58:59;;;;;;;10.73;6.85;;;;;;;;;;5060861;28;20013;-90
2022/09/15 06:01:29;;;;;;;14.23;7.93;;;;;;;;;;5048233;28;20116;-92
2022/09/15 06:03:55;;;;;;;21.67;9.65;;;;;;;;;;5033154;28;20084;-91
2022/09/15 06:06:22;;;;;;;15.73;7.80;;;;;;;;;;5047446;28;20338;-90
2022/09/15 06:08:49;;;;;;;23.52;10.98;;;;;;;;;;5031220;28;20022;-92
2022/09/15 06:11:17;;;;;;;26.88;15.40;;;;;;;;;;5049586;28;20101;-92
2022/09/15 06:13:43;;;;;;;31.27;15.52;;;;;;;;;;5044560;28;20026;-91
2022/09/15 06:16:11;;;;;;;18.48;13.93;;;;;;;;;;5028432;28;20037;-92
2022/09/15 06:18:38;;;;;;;28.48;18.58;;;;;;;;;;5048013;28;20025;-92
2022/09/15 06:21:05;;;;;;;24.27;11.98;;;;;;;;;;5070910;28;20032;-94
2022/09/15 06:23:31;;;;;;;25.13;14.00;;;;;;;;;;5044408;28;20488;-91
2022/09/15 06:26:03;;;;;;;29.38;18.23;;;;;;;;;;5021803;28;20017;-91
2022/09/15 06:28:29;;;;;;;34.30;22.45;;;;;;;;;;5046451;28;20092;-91
2022/09/15 06:30:55;;;;;;;31.85;18.17;;;;;;;;;;5046429;28;20048;-92
2022/09/15 06:33:21;;;;;;;30.10;10.98;;;;;;;;;;5041454;28;20026;-92
2022/09/15 06:35:47;;;;;;;35.33;17.42;;;;;;;;;;5024190;28;20033;-92
2022/09/15 06:38:13;;;;;;;25.27;9.65;;;;;;;;;;5052078;28;20029;-92
2022/09/15 06:40:39;;;;;;;24.67;12.93;;;;;;;;;;5052412;28;20054;-91
2022/09/15 06:43:05;;;;;;;32.13;18.83;;;;;;;;;;5054060;28;20029;-92
2022/09/15 06:45:31;;;;;;;26.75;10.38;;;;;;;;;;5052403;28;20026;-93
2022/09/15 06:47:57;;;;;;;28.20;15.88;;;;;;;;;;5023416;28;20023;-92
2022/09/15 06:50:23;;;;;;;29.23;16.13;;;;;;;;;;5040908;28;20108;-91
2022/09/15 06:52:49;;;;;;;29.05;14.35;;;;;;;;;;5033652;28;20057;-92
2022/09/15 06:55:15;;;;;;;24.98;15.65;;;;;;;;;;5045587;28;20044;-92
2022/09/15 06:57:41;;;;;;;25.13;14.10;;;;;;;;;;5058720;28;20032;-95
2022/09/15 07:00:08;;;;;;;27.63;14.75;;;;;;;;;;5064014;28;20017;-93
2022/09/15 07:02:34;;;;;;;25.52;16.02;;;;;;;;;;5071038;28;20043;-95
2022/09/15 07:05:00;;;;;;;27.27;14.75;;;;;;;;;;5045647;28;20017;-94
2022/09/15 07:07:27;;;;;;;31.13;12.10;;;;;;;;;;5078600;28;20022;-93
2022/09/15 07:09:53;;;;;;;31.67;14.98;;;;;;;;;;5056294;28;20084;-93
2022/09/15 07:12:19;;;;;;;30.98;16.55;;;;;;;;;;5056881;28;20064;-92
2022/09/15 07:14:45;;;;;;;34.40;17.63;;;;;;;;;;5043156;28;20180;-92
2022/09/15 07:17:11;;;;;;;30.00;15.90;;;;;;;;;;5035793;28;20025;-94
2022/09/15 07:19:37;;;;;;;36.30;14.95;;;;;;;;;;5040506;28;20018;-93
2022/09/15 07:22:03;;;;;;;27.52;12.82;;;;;;;;;;5036064;28;20532;-94
2022/09/15 07:24:29;;;;;;;30.70;12.45;;;;;;;;;;5054632;28;20034;-94
2022/09/15 07:26:55;;;;;;;30.15;12.40;;;;;;;;;;5043017;28;20044;-92
2022/09/15 07:29:21;;;;;;;23.50;11.70;;;;;;;;;;5050162;28;20032;-94
2022/09/15 07:31:48;;;;;;;20.73;10.65;;;;;;;;;;5047160;28;20021;-94
2022/09/15 07:34:14;;;;;;;20.50;12.65;;;;;;;;;;5042742;28;20080;-93
2022/09/15 07:36:40;;;;;;;20.52;8.25;;;;;;;;;;5058076;28;20024;-92
2022/09/15 07:39:06;;;;;;;20.35;8.38;;;;;;;;;;5047068;28;20021;-93
2022/09/15 07:41:33;;;;;;;21.30;9.65;;;;;;;;;;5045187;28;20026;-96
2022/09/15 07:44:00;;;;;;;26.38;11.27;;;;;;;;;;5055473;28;20504;-95
2022/09/15 07:46:29;;;;;;;21.67;8.52;;;;;;;;;;5043334;28;20029;-91
2022/09/15 07:48:59;;;;;;;29.60;11.80;;;;;;;;;;5045462;28;20041;-93
2022/09/15 07:51:26;;;;;;;17.63;12.00;;;;;;;;;;5044381;28;20022;-93
2022/09/15 07:53:52;;;;;;;48.90;35.83;;;;;;;;;;5064904;28;20049;-93
2022/09/15 07:56:19;;;;;;;22.40;11.18;;;;;;;;;;5040987;28;20045;-93
2022/09/15 07:58:48;;;;;;;19.63;12.32;;;;;;;;;;5049719;28;20021;-91
2022/09/15 08:01:15;;;;;;;28.92;19.50;;;;;;;;;;5027999;28;20503;-91
2022/09/15 08:03:42;;;;;;;27.67;12.07;;;;;;;;;;5051257;28;20036;-92
2022/09/15 08:06:08;;;;;;;25.60;12.68;;;;;;;;;;5044999;28;20156;-90
2022/09/15 08:08:36;;;;;;;19.55;12.00;;;;;;;;;;5030919;28;20159;-93
2022/09/15 08:11:05;;;;;;;22.80;8.88;;;;;;;;;;5052263;28;20137;-91
2022/09/15 08:13:31;;;;;;;26.45;11.98;;;;;;;;;;5043374;28;20026;-90
2022/09/15 08:16:04;;;;;;;24.63;15.80;;;;;;;;;;5051930;28;20018;-91
2022/09/15 08:18:30;;;;;;;24.08;12.48;;;;;;;;;;5035112;28;20032;-92
2022/09/15 08:20:56;;;;;;;21.02;11.50;;;;;;;;;;5051329;28;20022;-93
2022/09/15 08:23:22;;;;;;;55.15;46.15;;;;;;;;;;5037997;28;20038;-93
2022/09/15 08:25:50;;;;;;;30.33;15.38;;;;;;;;;;5029097;28;20022;-94
2022/09/15 08:28:16;;;;;;;22.60;10.60;;;;;;;;;;5047927;28;20021;-94
2022/09/15 08:30:42;;;;;;;22.48;12.52;;;;;;;;;;5050368;28;20120;-92
2022/09/15 08:33:08;;;;;;;27.75;16.88;;;;;;;;;;5042609;28;20021;-92
2022/09/15 08:35:35;;;;;;;16.48;9.32;;;;;;;;;;5035845;28;20029;-94
2022/09/15 08:38:01;;;;;;;10.48;5.70;;;;;;;;;;5029001;28;20149;-93
2022/09/15 08:40:35;;;;;;;15.27;8.02;;;;;;;;;;5038342;28;20057;-91
2022/09/15 08:43:04;;;;;;;17.00;6.25;;;;;;;;;;5033252;28;20072;-90
2022/09/15 08:45:35;;;;;;;27.48;8.23;;;;;;;;;;5038928;28;20029;-92
2022/09/15 08:48:02;;;;;;;39.50;9.60;;;;;;;;;;5043651;28;20080;-91
2022/09/15 08:50:34;;;;;;;16.15;9.48;;;;;;;;;;5025408;28;20116;-91
2022/09/15 08:53:10;;;;;;;46.15;30.65;;;;;;;;;;5025911;28;20040;-91
2022/09/15 08:55:40;;;;;;;23.08;14.77;;;;;;;;;;5045749;28;20021;-91
2022/09/15 08:58:11;;;;;;;14.50;5.90;;;;;;;;;;5057704;28;20017;-92
2022/09/15 09:00:39;;;;;;;16.95;7.45;;;;;;;;;;5033397;28;20029;-91
2022/09/15 09:03:20;;;;;;;26.83;18.13;;;;;;;;;;5034750;28;20044;-90
2022/09/15 09:05:56;;;;;;;20.52;14.15;;;;;;;;;;5049914;28;20022;-90
2022/09/15 09:08:48;;;;;;;21.15;11.68;;;;;;;;;;5065087;28;20017;-88
2022/09/15 09:11:28;;;;;;;6.72;3.05;;;;;;;;;;5037530;28;20037;-90
2022/09/15 09:14:00;;;;;;;8.82;3.90;;;;;;;;;;5037530;28;20132;-91
2022/09/15 09:16:42;;;;;;;10.27;4.07;;;;;;;;;;5043525;28;20128;-90
2022/09/15 09:19:16;;;;;;;7.72;2.63;;;;;;;;;;5062035;28;20005;-90
2022/09/15 09:21:44;;;;;;;6.38;3.00;;;;;;;;;;5044719;28;20029;-91
2022/09/15 09:24:10;;;;;;;12.73;3.90;;;;;;;;;;5035332;28;20030;-90
2022/09/15 09:26:37;;;;;;;5.35;2.30;;;;;;;;;;5038014;28;20018;-94
2022/09/15 09:29:11;;;;;;;5.32;1.95;;;;;;;;;;5042702;28;20025;-94
2022/09/15 09:31:37;;;;;;;6.75;2.50;;;;;;;;;;5047698;28;20018;-93
2022/09/15 09:34:03;;;;;;;7.90;2.90;;;;;;;;;;5028296;28;20052;-94
2022/09/15 09:36:29;;;;;;;9.65;2.80;;;;;;;;;;5033292;28;20048;-93
2022/09/15 09:38:55;;;;;;;9.40;6.13;;;;;;;;;;5033266;28;20732;-96
2022/09/15 09:41:34;;;;;;;8.77;2.60;;;;;;;;;;5044566;28;20025;-91
2022/09/15 09:44:01;;;;;;;9.65;2.17;;;;;;;;;;5047463;28;20033;-92
2022/09/15 09:46:27;;;;;;;11.88;2.97;;;;;;;;;;5022930;28;20029;-93
2022/09/15 09:49:05;;;;;;;14.38;10.25;;;;;;;;;;5033176;28;20021;-93
2022/09/15 09:51:36;;;;;;;8.00;2.90;;;;;;;;;;5046572;28;20026;-92
2022/09/15 09:54:15;;;;;;;6.95;3.47;;;;;;;;;;5029554;28;20072;-93
2022/09/15 09:56:42;;;;;;;9.27;2.80;;;;;;;;;;5045158;28;20025;-94
2022/09/15 09:59:28;;;;;;;7.13;3.85;;;;;;;;;;5044178;28;20024;-92
2022/09/15 10:02:13;;;;;;;11.77;3.80;;;;;;;;;;5033348;28;20081;-92
2022/09/15 10:04:40;;;;;;;8.43;4.63;;;;;;;;;;5019991;28;20061;-94
2022/09/15 10:07:07;;;;;;;5.70;3.10;;;;;;;;;;5033681;28;20036;-94
2022/09/15 10:09:33;;;;;;;23.60;15.90;;;;;;;;;;5052731;28;20033;-96
2022/09/15 10:12:00;;;;;;;15.27;4.03;;;;;;;;;;5048861;28;20030;-91
2022/09/15 10:14:34;;;;;;;8.82;4.35;;;;;;;;;;5052070;28;20029;-92
2022/09/15 10:17:00;;;;;;;6.28;2.28;;;;;;;;;;5048614;28;20036;-91
2022/09/15 10:19:31;;;;;;;10.35;3.58;;;;;;;;;;5028823;28;20029;-90
2022/09/15 10:21:57;;;;;;;7.90;3.13;;;;;;;;;;5052212;28;20156;-93
2022/09/15 10:24:27;;;;;;;6.68;3.47;;;;;;;;;;5033454;28;20069;-93
2022/09/15 10:27:26;;;;;;;16.17;4.68;;;;;;;;;;5065055;28;20021;-94
2022/09/15 10:29:52;;;;;;;5.80;3.70;;;;;;;;;;5006442;28;20077;-93
2022/09/15 10:32:22;;;;;;;10.07;3.40;;;;;;;;;;5037508;28;20083;-94
2022/09/15 10:34:49;;;;;;;7.45;3.47;;;;;;;;;;5035693;28;20033;-94
2022/09/15 10:37:20;;;;;;;10.98;4.20;;;;;;;;;;5040513;28;20018;-92
2022/09/15 10:39:54;;;;;;;6.40;3.97;;;;;;;;;;5049715;28;20021;-93
2022/09/15 10:42:31;;;;;;;12.98;4.95;;;;;;;;;;5048318;28;20049;-94
2022/09/15 10:45:00;;;;;;;9.68;4.13;;;;;;;;;;5091521;22;20068;-96
2022/09/15 10:47:35;;;;;;;11.77;3.60;;;;;;;;;;5016956;28;20022;-95
2022/09/15 10:50:09;;;;;;;13.43;9.45;;;;;;;;;;5018484;28;20029;-95
2022/09/15 10:52:53;;;;;;;10.23;3.45;;;;;;;;;;5013180;28;20034;-94
2022/09/15 10:55:29;;;;;;;12.88;3.38;;;;;;;;;;5015839;28;20030;-94
2022/09/15 10:57:55;;;;;;;15.30;4.50;;;;;;;;;;5016020;28;20496;-93
2022/09/15 11:00:25;;;;;;;37.58;30.88;;;;;;;;;;5014880;28;20481;-94
2022/09/15 11:02:59;;;;;;;27.63;21.60;;;;;;;;;;5009554;28;20113;-93
2022/09/15 11:05:33;;;;;;;9.63;4.55;;;;;;;;;;5014970;28;20029;-93
2022/09/15 11:08:23;;;;;;;6.63;3.95;;;;;;;;;;5018553;28;20026;-93
2022/09/15 11:11:04;;;;;;;14.75;7.07;;;;;;;;;;5011924;28;20030;-92
2022/09/15 11:13:36;;;;;;;7.63;4.18;;;;;;;;;;5020768;28;20124;-93
2022/09/15 11:16:11;;;;;;;8.40;4.45;;;;;;;;;;5005883;28;20073;-94
2022/09/15 11:19:05;;;;;;;9.02;3.88;;;;;;;;;;5007403;28;20085;-92
2022/09/15 11:21:38;;;;;;;14.63;5.00;;;;;;;;;;4997888;28;20044;-93
2022/09/15 11:24:07;;;;;;;8.15;4.80;;;;;;;;;;5016425;28;20481;-95
2022/09/15 11:26:39;;;;;;;25.73;11.38;;;;;;;;;;5008590;28;20042;-94
2022/09/15 11:29:10;;;;;;;23.67;13.88;;;;;;;;;;5013746;28;20022;-92
2022/09/15 11:31:38;;;;;;;53.28;47.60;;;;;;;;;;5018415;28;20042;-92
2022/09/15 11:34:10;;;;;;;26.10;18.73;;;;;;;;;;5028455;28;20022;-92
2022/09/15 11:36:55;;;;;;;14.98;5.90;;;;;;;;;;5024583;28;20034;-92
2022/09/15 11:39:28;;;;;;;35.35;28.30;;;;;;;;;;5045471;28;20030;-91
2022/09/15 11:42:15;;;;;;;28.33;20.23;;;;;;;;;;5032242;28;20029;-96
2022/09/15 11:44:43;;;;;;;36.88;27.05;;;;;;;;;;5010796;28;20045;-93
2022/09/15 11:47:31;;;;;;;31.40;20.42;;;;;;;;;;5016500;28;20030;-92
2022/09/15 11:49:57;;;;;;;14.25;6.20;;;;;;;;;;5016621;28;20026;-95
2022/09/15 11:52:35;;;;;;;8.70;4.25;;;;;;;;;;5015384;28;20026;-92
2022/09/15 11:55:13;;;;;;;14.20;4.40;;;;;;;;;;5016516;28;20048;-92
2022/09/15 11:58:02;;;;;;;17.27;5.05;;;;;;;;;;5019147;28;20026;-92
2022/09/15 12:00:30;;;;;;;9.93;5.95;;;;;;;;;;5015984;28;20064;-93
2022/09/15 12:03:15;;;;;;;19.17;9.60;;;;;;;;;;5011096;28;20031;-91
2022/09/15 12:06:01;;;;;;;41.85;26.13;;;;;;;;;;5008437;28;20037;-92
2022/09/15 12:08:27;;;;;;;44.72;16.02;;;;;;;;;;5011850;28;20539;-91
2022/09/15 12:10:55;;;;;;;68.00;60.42;;;;;;;;;;5015563;28;20022;-93
2022/09/15 12:13:23;;;;;;;28.00;17.73;;;;;;;;;;5014997;28;20051;-95
2022/09/15 12:15:50;;;;;;;43.45;36.20;;;;;;;;;;5039024;28;20022;-91
2022/09/15 12:18:24;;;;;;;20.10;9.07;;;;;;;;;;5014849;28;20025;-93
2022/09/15 12:20:56;;;;;;;45.45;31.52;;;;;;;;;;5015792;28;20026;-91
2022/09/15 12:23:29;;;;;;;11.48;5.78;;;;;;;;;;5002060;28;20030;-93
2022/09/15 12:26:04;;;;;;;30.05;21.50;;;;;;;;;;5017626;28;20118;-92
2022/09/15 12:28:41;;;;;;;19.90;14.07;;;;;;;;;;5016578;28;20022;-93
2022/09/15 12:31:12;;;;;;;11.30;4.30;;;;;;;;;;5006701;28;20030;-90
2022/09/15 12:33:41;;;;;;;13.18;7.78;;;;;;;;;;5015505;28;20030;-92
2022/09/15 12:36:26;;;;;;;26.00;16.33;;;;;;;;;;5022396;28;20018;-89
2022/09/15 12:38:52;;;;;;;12.05;4.50;;;;;;;;;;5029422;28;20037;-89
2022/09/15 12:41:18;;;;;;;29.13;22.95;;;;;;;;;;5002956;28;20022;-89
2022/09/15 12:43:55;;;;;;;12.55;4.43;;;;;;;;;;5019665;28;20042;-90
2022/09/15 12:46:21;;;;;;;19.13;8.55;;;;;;;;;;5031202;28;20041;-91
2022/09/15 12:48:48;;;;;;;15.13;7.05;;;;;;;;;;5022622;28;20025;-90
2022/09/15 12:51:21;;;;;;;15.23;9.80;;;;;;;;;;5022180;28;20124;-88
2022/09/15 12:54:08;;;;;;;14.70;7.30;;;;;;;;;;5018214;28;20025;-92
2022/09/15 12:56:34;;;;;;;17.60;6.82;;;;;;;;;;5009030;28;20105;-91
2022/09/15 12:59:07;;;;;;;15.93;8.70;;;;;;;;;;5005075;28;20060;-92
2022/09/15 13:01:46;;;;;;;15.23;6.68;;;;;;;;;;5013666;28;20026;-91
2022/09/15 13:04:25;;;;;;;12.68;6.57;;;;;;;;;;5013330;28;20034;-95
2022/09/15 13:07:10;;;;;;;18.73;6.78;;;;;;;;;;5013224;28;20044;-90
2022/09/15 13:09:43;;;;;;;17.80;7.30;;;;;;;;;;5007897;28;20014;-93
2022/09/15 13:12:10;;;;;;;18.77;9.07;;;;;;;;;;5008138;28;20113;-92
2022/09/15 13:14:40;;;;;;;10.18;5.88;;;;;;;;;;5013454;28;20033;-92
2022/09/15 13:17:12;;;;;;;18.48;10.25;;;;;;;;;;5013733;28;20595;-91
2022/09/15 13:19:40;;;;;;;21.67;8.38;;;;;;;;;;5030969;28;20026;-91
2022/09/15 13:22:09;;;;;;;19.50;8.68;;;;;;;;;;5010045;28;20027;-94
2022/09/15 13:24:44;;;;;;;18.45;8.13;;;;;;;;;;5008755;28;20076;-90
2022/09/15 13:27:11;;;;;;;21.30;10.40;;;;;;;;;;5016040;28;20069;-91
2022/09/15 13:29:43;;;;;;;35.83;18.20;;;;;;;;;;5016241;28;20076;-92
2022/09/15 13:32:21;;;;;;;23.13;9.43;;;;;;;;;;5007624;28;20026;-91
2022/09/15 13:34:47;;;;;;;14.82;8.93;;;;;;;;;;5011972;28;20026;-95
2022/09/15 13:37:15;;;;;;;16.27;6.80;;;;;;;;;;5020741;22;21012;-90
2022/09/15 13:40:00;;;;;;;18.48;8.98;;;;;;;;;;5040841;28;20148;-93
2022/09/15 13:42:38;;;;;;;23.38;10.73;;;;;;;;;;5037895;28;20036;-94
2022/09/15 13:45:25;;;;;;;21.63;7.35;;;;;;;;;;5030055;28;20038;-91
2022/09/15 13:48:10;;;;;;;40.45;26.25;;;;;;;;;;5030922;28;20492;-96
2022/09/15 13:50:50;;;;;;;33.40;17.27;;;;;;;;;;5036981;28;20055;-96
2022/09/15 13:53:16;;;;;;;53.42;42.10;;;;;;;;;;5035088;28;20029;-94
2022/09/15 13:55:44;;;;;;;39.08;29.95;;;;;;;;;;5030965;28;20481;-92
2022/09/15 13:58:13;;;;;;;34.65;19.10;;;;;;;;;;5032447;28;20080;-92
2022/09/15 14:00:45;;;;;;;37.97;27.75;;;;;;;;;;5032993;28;20048;-93
2022/09/15 14:03:15;;;;;;;42.33;24.42;;;;;;;;;;5034850;28;20125;-93
2022/09/15 14:05:42;;;;;;;42.97;26.65;;;;;;;;;;5027045;28;20025;-91
2022/09/15 14:08:14;;;;;;;26.35;11.85;;;;;;;;;;5033520;28;20038;-95
2022/09/15 14:10:53;;;;;;;41.42;17.25;;;;;;;;;;5035408;28;20017;-94
2022/09/15 14:13:20;;;;;;;34.05;12.25;;;;;;;;;;5039000;28;20033;-94
2022/09/15 14:16:04;;;;;;;26.77;9.38;;;;;;;;;;5032615;28;20120;-93
2022/09/15 14:18:40;;;;;;;29.52;9.77;;;;;;;;;;5020936;28;20456;-93
2022/09/15 14:21:06;;;;;;;17.83;9.68;;;;;;;;;;5034762;28;20025;-96
2022/09/15 14:23:33;;;;;;;27.85;9.32;;;;;;;;;;5033493;28;20091;-95
2022/09/15 14:26:00;;;;;;;16.83;10.05;;;;;;;;;;5029228;28;20024;-92
2022/09/15 14:28:31;;;;;;;39.67;29.55;;;;;;;;;;5031576;28;20025;-94
2022/09/15 14:31:01;;;;;;;23.63;12.50;;;;;;;;;;5122375;23;20118;-93
2022/09/15 14:33:37;;;;;;;33.88;18.83;;;;;;;;;;5044315;28;20108;-96
2022/09/15 14:36:13;;;;;;;28.73;13.82;;;;;;;;;;5063625;28;20025;-96
2022/09/15 14:38:40;;;;;;;18.48;8.77;;;;;;;;;;5047922;28;20032;-95
2022/09/15 14:41:06;;;;;;;19.95;9.40;;;;;;;;;;5046377;28;20025;-94
2022/09/15 14:43:39;;;;;;;21.52;11.80;;;;;;;;;;5053329;28;20040;-95